createdAt,value
2023-04-19T00:00:40.195Z,7.71
2023-04-19T00:03:08.566Z,7.68
2023-04-19T00:05:38.512Z,7.68
2023-04-19T00:08:06.952Z,7.65
2023-04-19T00:10:37.519Z,7.67
2023-04-19T00:13:05.447Z,7.57
2023-04-19T00:15:35.134Z,7.61
2023-04-19T00:18:03.807Z,7.66
2023-04-19T00:20:31.736Z,7.64
2023-04-19T00:22:59.671Z,7.58
2023-04-19T00:25:28.513Z,7.55
2023-04-19T00:27:57.721Z,7.56
2023-04-19T00:30:25.509Z,7.53
2023-04-19T00:32:54.208Z,7.57
2023-04-19T00:35:22.572Z,7.57
2023-04-19T00:37:50.551Z,7.55
2023-04-19T00:40:18.443Z,7.52
2023-04-19T00:42:46.453Z,7.51
2023-04-19T00:45:15.589Z,7.49
2023-04-19T00:47:43.687Z,7.51
2023-04-19T00:50:13.038Z,7.53
2023-04-19T00:52:41.187Z,7.53
2023-04-19T00:55:09.365Z,7.50
2023-04-19T00:57:37.557Z,7.57
2023-04-19T01:00:08.882Z,7.49
2023-04-19T01:02:38.353Z,7.55
2023-04-19T01:05:06.971Z,7.78
2023-04-19T01:07:34.960Z,8.00
2023-04-19T01:10:02.947Z,7.73
2023-04-19T01:12:30.711Z,7.57
2023-04-19T01:14:58.538Z,7.53
2023-04-19T01:17:26.442Z,7.57
2023-04-19T01:20:01.961Z,7.67
2023-04-19T01:22:33.152Z,7.53
2023-04-19T01:25:01.077Z,7.57
2023-04-19T01:27:29.058Z,7.40
2023-04-19T01:29:58.770Z,7.35
2023-04-19T01:32:28.094Z,7.31
2023-04-19T01:34:57.296Z,7.29
2023-04-19T01:37:25.308Z,7.26
2023-04-19T01:39:54.726Z,7.40
2023-04-19T01:42:23.032Z,7.48
2023-04-19T01:44:51.201Z,7.35
2023-04-19T01:47:20.870Z,7.26
2023-04-19T01:49:48.703Z,7.29
2023-04-19T01:52:17.272Z,7.29
2023-04-19T01:54:45.067Z,7.26
2023-04-19T01:57:16.644Z,7.28
2023-04-19T01:59:44.938Z,7.18
2023-04-19T02:02:13.349Z,7.17
2023-04-19T02:04:41.186Z,7.17
2023-04-19T02:07:09.237Z,7.23
2023-04-19T02:09:37.596Z,7.31
2023-04-19T02:12:05.902Z,7.10
2023-04-19T02:14:35.224Z,7.10
2023-04-19T02:17:03.114Z,7.16
2023-04-19T02:19:31.248Z,7.18
2023-04-19T02:21:59.222Z,7.21
2023-04-19T02:24:27.044Z,7.08
2023-04-19T02:26:54.993Z,6.97
2023-04-19T02:29:22.899Z,6.93
2023-04-19T02:31:52.386Z,6.99
2023-04-19T02:34:20.411Z,7.26
2023-04-19T02:36:48.481Z,7.15
2023-04-19T02:39:17.049Z,7.14
2023-04-19T02:41:44.995Z,7.03
2023-04-19T02:44:13.197Z,6.89
2023-04-19T02:46:41.262Z,6.97
2023-04-19T02:49:10.501Z,6.85
2023-04-19T02:51:38.530Z,6.71
2023-04-19T02:54:06.750Z,6.70
2023-04-19T02:56:34.882Z,6.60
2023-04-19T02:59:03.844Z,6.62
2023-04-19T03:01:32.102Z,6.61
2023-04-19T03:04:02.287Z,6.42
2023-04-19T03:06:32.084Z,6.42
2023-04-19T03:08:59.926Z,6.48
2023-04-19T03:11:28.687Z,6.54
2023-04-19T03:13:56.480Z,6.40
2023-04-19T03:16:24.376Z,6.49
2023-04-19T03:18:54.162Z,6.41
2023-04-19T03:21:29.182Z,6.51
2023-04-19T03:23:58.724Z,6.23
2023-04-19T03:26:27.759Z,6.01
2023-04-19T03:28:57.981Z,6.22
2023-04-19T03:31:35.378Z,6.25
2023-04-19T03:34:04.733Z,5.80
2023-04-19T03:36:39.891Z,6.15
2023-04-19T03:39:13.699Z,6.26
2023-04-19T03:41:43.887Z,6.05
2023-04-19T03:44:19.674Z,5.87
2023-04-19T03:46:48.862Z,5.94
2023-04-19T03:49:20.739Z,5.75
2023-04-19T03:51:54.770Z,5.74
2023-04-19T03:54:24.819Z,5.92
2023-04-19T03:56:52.606Z,5.80
2023-04-19T03:59:20.640Z,5.75
2023-04-19T04:01:48.833Z,5.57
2023-04-19T04:04:16.940Z,5.49
2023-04-19T04:06:45.893Z,5.42
2023-04-19T04:09:16.772Z,5.32
2023-04-19T04:11:46.617Z,5.33
2023-04-19T04:14:14.887Z,5.44
2023-04-19T04:16:42.970Z,5.24
2023-04-19T04:19:11.237Z,5.30
2023-04-19T04:21:41.925Z,5.26
2023-04-19T04:24:10.953Z,5.31
2023-04-19T04:27:00.946Z,5.19
2023-04-19T04:29:32.525Z,5.07
2023-04-19T04:32:02.698Z,4.97
2023-04-19T04:34:37.781Z,4.96
2023-04-19T04:37:11.798Z,4.91
2023-04-19T04:39:40.222Z,4.91
2023-04-19T04:42:12.274Z,5.03
2023-04-19T04:44:40.097Z,5.03
2023-04-19T04:47:10.534Z,4.97
2023-04-19T04:49:43.904Z,5.05
2023-04-19T04:52:11.807Z,4.94
2023-04-19T04:54:50.510Z,5.03
2023-04-19T04:57:27.145Z,5.00
2023-04-19T04:59:56.424Z,4.93
2023-04-19T05:02:27.122Z,5.14
2023-04-19T05:04:55.161Z,4.72
2023-04-19T05:07:22.964Z,4.71
2023-04-19T05:09:52.073Z,4.87
2023-04-19T05:12:25.153Z,4.84
2023-04-19T05:14:54.458Z,4.84
2023-04-19T05:17:22.313Z,4.86
2023-04-19T05:19:50.207Z,4.88
2023-04-19T05:22:18.405Z,4.89
2023-04-19T05:24:47.304Z,5.04
2023-04-19T05:27:16.384Z,4.93
2023-04-19T05:29:44.721Z,4.83
2023-04-19T05:32:14.201Z,4.78
2023-04-19T05:34:46.843Z,4.55
2023-04-19T05:37:16.785Z,4.51
2023-04-19T05:39:44.921Z,4.44
2023-04-19T05:42:12.824Z,4.56
2023-04-19T05:44:40.951Z,4.59
2023-04-19T05:47:12.314Z,4.64
2023-04-19T05:50:04.409Z,4.51
2023-04-19T05:52:35.952Z,4.47
2023-04-19T05:55:06.009Z,4.43
2023-04-19T05:57:35.482Z,4.51
2023-04-19T06:00:05.963Z,4.35
2023-04-19T06:02:57.934Z,4.27
2023-04-19T06:05:27.364Z,4.19
2023-04-19T06:08:02.722Z,4.25
2023-04-19T06:10:37.537Z,4.41
2023-04-19T06:13:08.974Z,4.37
2023-04-19T06:15:36.866Z,4.30
2023-04-19T06:18:07.240Z,4.20
2023-04-19T06:20:36.476Z,4.14
2023-04-19T06:23:04.252Z,4.06
2023-04-19T06:25:32.707Z,4.10
2023-04-19T06:28:00.761Z,4.05
2023-04-19T06:30:28.895Z,4.08
2023-04-19T06:32:57.033Z,4.01
2023-04-19T06:35:25.502Z,3.88
2023-04-19T06:37:54.844Z,3.90
2023-04-19T06:40:22.928Z,3.95
2023-04-19T06:42:51.045Z,3.96
2023-04-19T06:45:18.963Z,3.89
2023-04-19T06:47:46.859Z,3.94
2023-04-19T06:50:14.690Z,4.02
2023-04-19T06:52:43.184Z,4.02
2023-04-19T06:55:12.674Z,4.24
2023-04-19T06:57:40.962Z,4.54
2023-04-19T07:00:10.102Z,4.78
2023-04-19T07:02:38.009Z,4.84
2023-04-19T07:05:06.874Z,4.61
2023-04-19T07:07:34.606Z,4.64
2023-04-19T07:10:02.316Z,4.77
2023-04-19T07:12:31.438Z,4.45
2023-04-19T07:14:59.120Z,4.76
2023-04-19T07:17:27.161Z,4.90
2023-04-19T07:19:54.983Z,4.56
2023-04-19T07:22:23.262Z,4.67
2023-04-19T07:24:52.172Z,4.81
2023-04-19T07:27:19.878Z,4.92
2023-04-19T07:29:48.965Z,4.87
2023-04-19T07:32:16.724Z,4.53
2023-04-19T07:34:45.870Z,4.49
2023-04-19T07:37:13.624Z,4.54
2023-04-19T07:39:41.435Z,4.64
2023-04-19T07:42:09.234Z,4.77
2023-04-19T07:44:37.310Z,4.93
2023-04-19T07:47:06.661Z,5.15
2023-04-19T07:49:35.273Z,4.95
2023-04-19T07:52:03.079Z,4.93
2023-04-19T07:54:32.261Z,5.10
2023-04-19T07:57:00.020Z,5.06
2023-04-19T07:59:27.751Z,5.30
2023-04-19T08:01:55.658Z,5.70
2023-04-19T08:04:25.356Z,5.12
2023-04-19T08:06:53.926Z,5.14
2023-04-19T08:09:21.624Z,5.53
2023-04-19T08:11:49.348Z,5.52
2023-04-19T08:14:32.119Z,5.59
2023-04-19T08:19:37.250Z,5.84
2023-04-19T08:22:05.971Z,5.58
2023-04-19T08:24:33.697Z,6.04
2023-04-19T08:27:01.734Z,6.00
2023-04-19T08:29:29.492Z,6.09
2023-04-19T08:31:57.257Z,6.37
2023-04-19T08:34:25.034Z,6.42
2023-04-19T08:37:03.573Z,5.79
2023-04-19T08:39:33.975Z,5.88
2023-04-19T08:42:10.370Z,6.20
2023-04-19T08:44:54.297Z,6.42
2023-04-19T08:47:32.209Z,6.21
2023-04-19T08:50:11.782Z,6.60
2023-04-19T08:52:56.109Z,7.23
2023-04-19T08:55:26.714Z,6.70
2023-04-19T08:57:54.408Z,6.68
2023-04-19T09:00:23.020Z,7.12
2023-04-19T09:02:51.653Z,7.28
2023-04-19T09:05:20.170Z,7.22
2023-04-19T09:07:48.112Z,7.26
2023-04-19T09:10:17.951Z,7.22
2023-04-19T09:13:00.621Z,7.13
2023-04-19T09:15:36.912Z,7.32
2023-04-19T09:18:05.775Z,7.77
2023-04-19T09:20:37.280Z,7.70
2023-04-19T09:23:06.084Z,7.74
2023-04-19T09:25:58.840Z,7.71
2023-04-19T09:28:24.597Z,7.70
2023-04-19T09:31:00.645Z,7.44
2023-04-19T09:33:35.196Z,7.16
2023-04-19T09:36:03.122Z,7.85
2023-04-19T09:38:30.904Z,8.02
2023-04-19T09:41:18.409Z,7.66
2023-04-19T09:44:05.516Z,8.13
2023-04-19T09:46:34.954Z,7.48
2023-04-19T09:49:25.163Z,8.02
2023-04-19T09:51:58.849Z,7.91
2023-04-19T09:54:27.477Z,8.48
2023-04-19T09:56:57.946Z,8.31
2023-04-19T09:59:26.736Z,8.44
2023-04-19T10:01:55.669Z,7.77
2023-04-19T10:04:32.741Z,8.29
2023-04-19T10:07:25.179Z,8.24
2023-04-19T10:09:56.469Z,8.57
2023-04-19T10:14:58.658Z,8.91
2023-04-19T10:17:26.704Z,8.93
2023-04-19T10:20:00.964Z,8.67
2023-04-19T10:22:28.941Z,8.75
2023-04-19T10:25:12.477Z,8.26
2023-04-19T10:27:48.948Z,8.78
2023-04-19T10:30:22.890Z,9.27
2023-04-19T10:32:56.385Z,9.07
2023-04-19T10:35:29.414Z,8.91
2023-04-19T10:38:07.255Z,8.87
2023-04-19T10:41:00.645Z,8.63
2023-04-19T10:43:33.228Z,9.26
2023-04-19T10:46:04.387Z,9.04
2023-04-19T10:48:39.501Z,8.40
2023-04-19T10:51:14.485Z,8.24
2023-04-19T10:53:49.889Z,8.75
2023-04-19T10:56:17.966Z,9.03
2023-04-19T10:59:24.179Z,9.08
2023-04-19T11:01:56.265Z,9.24
2023-04-19T11:04:43.593Z,8.63
2023-04-19T11:07:11.424Z,8.30
2023-04-19T11:09:39.692Z,8.49
2023-04-19T11:12:08.786Z,8.70
2023-04-19T11:14:38.666Z,8.57
2023-04-19T11:17:19.065Z,8.33
2023-04-19T11:19:47.132Z,8.86
2023-04-19T11:22:14.835Z,8.72
2023-04-19T11:24:47.143Z,9.22
2023-04-19T11:27:14.951Z,8.78
2023-04-19T11:29:44.086Z,8.49
2023-04-19T11:32:11.820Z,8.56
2023-04-19T11:34:39.915Z,8.29
2023-04-19T11:37:07.662Z,8.39
2023-04-19T11:39:35.478Z,8.43
2023-04-19T11:42:03.487Z,9.14
2023-04-19T11:44:31.284Z,9.14
2023-04-19T11:47:01.679Z,8.82
2023-04-19T11:49:30.317Z,8.49
2023-04-19T11:51:59.528Z,8.52
2023-04-19T11:54:27.479Z,8.61
2023-04-19T11:56:59.907Z,8.87
2023-04-19T11:59:27.650Z,9.51
2023-04-19T12:01:55.354Z,9.16
2023-04-19T12:04:24.752Z,8.86
2023-04-19T12:06:59.652Z,8.63
2023-04-19T12:09:27.388Z,8.18
2023-04-19T12:11:55.179Z,8.05
2023-04-19T12:14:23.425Z,8.26
2023-04-19T12:17:07.811Z,8.30
2023-04-19T12:19:43.831Z,8.28
2023-04-19T12:22:15.550Z,8.17
2023-04-19T12:24:43.529Z,8.06
2023-04-19T12:27:11.370Z,8.14
2023-04-19T12:29:39.464Z,8.19
2023-04-19T12:32:07.457Z,8.36
2023-04-19T12:34:35.270Z,8.49
2023-04-19T12:37:04.463Z,8.50
2023-04-19T12:39:32.208Z,8.51
2023-04-19T12:41:59.908Z,8.45
2023-04-19T12:44:27.648Z,8.73
2023-04-19T12:46:57.454Z,8.36
2023-04-19T12:49:25.539Z,8.14
2023-04-19T12:51:57.360Z,7.83
2023-04-19T12:54:26.755Z,7.26
2023-04-19T12:56:55.054Z,7.41
2023-04-19T12:59:23.752Z,7.18
2023-04-19T13:01:51.527Z,6.66
2023-04-19T13:04:19.749Z,6.86
2023-04-19T13:06:48.019Z,7.04
2023-04-19T13:09:16.109Z,7.21
2023-04-19T13:11:48.119Z,7.55
2023-04-19T13:14:16.134Z,7.70
2023-04-19T13:16:44.051Z,8.34
2023-04-19T13:19:11.926Z,8.42
2023-04-19T13:21:39.750Z,9.07
2023-04-19T13:24:07.950Z,9.00
2023-04-19T13:26:41.779Z,8.42
2023-04-19T13:29:10.945Z,8.37
2023-04-19T13:31:38.860Z,8.32
2023-04-19T13:34:06.609Z,8.52
2023-04-19T13:36:34.388Z,8.67
2023-04-19T13:39:02.238Z,9.31
2023-04-19T13:41:30.506Z,8.72
2023-04-19T13:43:59.112Z,8.63
2023-04-19T13:46:28.306Z,8.84
2023-04-19T13:48:56.144Z,8.90
2023-04-19T13:51:23.893Z,9.18
2023-04-19T13:53:51.958Z,9.48
2023-04-19T13:56:19.968Z,10.08
2023-04-19T13:58:47.849Z,10.11
2023-04-19T14:01:15.674Z,9.57
2023-04-19T14:03:44.974Z,9.33
2023-04-19T14:09:02.829Z,8.29
2023-04-19T14:11:30.726Z,7.56
2023-04-19T14:13:58.462Z,6.61
2023-04-19T14:16:26.251Z,5.61
2023-04-19T14:18:55.389Z,5.51
2023-04-19T14:21:23.102Z,5.58
2023-04-19T14:23:50.835Z,5.67
2023-04-19T14:26:18.565Z,5.99
2023-04-19T14:28:46.334Z,6.09
2023-04-19T14:31:14.236Z,6.10
2023-04-19T14:33:42.030Z,6.21
2023-04-19T14:36:11.189Z,6.21
2023-04-19T14:38:39.031Z,6.31
2023-04-19T14:41:06.816Z,6.62
2023-04-19T14:43:34.790Z,6.67
2023-04-19T14:46:02.726Z,6.73
2023-04-19T14:48:30.691Z,6.79
2023-04-19T14:50:58.402Z,6.91
2023-04-19T14:53:27.581Z,6.90
2023-04-19T14:55:55.418Z,7.17
2023-04-19T14:58:23.204Z,7.19
2023-04-19T15:00:50.983Z,7.18
2023-04-19T15:03:18.813Z,7.37
2023-04-19T15:05:46.744Z,7.69
2023-04-19T15:08:28.929Z,7.77
2023-04-19T15:10:59.029Z,8.01
2023-04-19T15:13:27.143Z,8.24
2023-04-19T15:15:56.256Z,8.44
2023-04-19T15:18:24.272Z,8.28
2023-04-19T15:20:52.029Z,8.33
2023-04-19T15:23:19.820Z,8.55
2023-04-19T15:25:49.742Z,8.67
2023-04-19T15:28:18.841Z,8.86
2023-04-19T15:30:46.524Z,8.68
2023-04-19T15:33:14.303Z,8.50
2023-04-19T15:35:42.034Z,8.75
2023-04-19T15:38:09.776Z,9.05
2023-04-19T15:40:38.540Z,8.68
2023-04-19T15:43:06.469Z,8.75
2023-04-19T15:45:36.015Z,7.99
2023-04-19T15:48:04.470Z,7.00
2023-04-19T15:50:32.568Z,6.28
2023-04-19T15:53:00.641Z,5.88
2023-04-19T15:55:28.342Z,5.38
2023-04-19T15:57:56.117Z,5.02
2023-04-19T16:00:24.146Z,5.08
2023-04-19T16:02:53.348Z,5.13
2023-04-19T16:05:21.161Z,5.06
2023-04-19T16:07:51.122Z,5.06
2023-04-19T16:10:19.942Z,5.05
2023-04-19T16:12:47.736Z,5.23
2023-04-19T16:15:15.590Z,5.14
2023-04-19T16:17:43.402Z,5.40
2023-04-19T16:20:13.439Z,5.39
2023-04-19T16:22:41.215Z,5.69
2023-04-19T16:25:11.054Z,5.60
2023-04-19T16:27:41.615Z,5.63
2023-04-19T16:30:10.348Z,5.53
2023-04-19T16:32:38.182Z,5.35
2023-04-19T16:35:06.452Z,5.41
2023-04-19T16:37:35.695Z,5.21
2023-04-19T16:40:07.015Z,5.14
2023-04-19T16:42:34.905Z,5.23
2023-04-19T16:45:02.733Z,5.04
2023-04-19T16:47:31.228Z,5.11
2023-04-19T16:49:59.091Z,5.11
2023-04-19T16:52:31.636Z,4.96
2023-04-19T16:55:03.354Z,5.00
2023-04-19T16:57:31.691Z,4.96
2023-04-19T17:00:03.227Z,4.97
2023-04-19T17:02:31.018Z,5.03
2023-04-19T17:04:59.673Z,5.29
2023-04-19T17:07:27.634Z,5.60
2023-04-19T17:09:55.948Z,5.66
2023-04-19T17:12:25.245Z,5.34
2023-04-19T17:14:53.111Z,5.64
2023-04-19T17:17:21.199Z,5.76
2023-04-19T17:19:49.089Z,5.98
2023-04-19T17:22:16.859Z,5.94
2023-04-19T17:24:44.630Z,6.05
2023-04-19T17:27:12.356Z,6.08
2023-04-19T17:29:41.500Z,6.21
2023-04-19T17:32:09.489Z,6.33
2023-04-19T17:34:37.331Z,6.31
2023-04-19T17:37:05.111Z,6.23
2023-04-19T17:39:32.824Z,6.34
2023-04-19T17:42:01.718Z,6.40
2023-04-19T17:44:32.589Z,6.29
2023-04-19T17:47:02.114Z,6.26
2023-04-19T17:49:29.932Z,6.29
2023-04-19T17:51:57.714Z,5.90
2023-04-19T17:54:26.100Z,5.96
2023-04-19T17:57:02.687Z,5.76
2023-04-19T17:59:30.482Z,6.08
2023-04-19T18:01:58.910Z,6.02
2023-04-19T18:04:28.250Z,5.73
2023-04-19T18:06:58.662Z,5.83
2023-04-19T18:09:28.197Z,5.94
2023-04-19T18:11:58.846Z,5.81
2023-04-19T18:14:28.751Z,5.91
2023-04-19T18:16:58.789Z,6.00
2023-04-19T18:19:31.160Z,5.59
2023-04-19T18:22:02.400Z,5.64
2023-04-19T18:24:30.116Z,5.51
2023-04-19T18:27:00.491Z,5.17
2023-04-19T18:29:33.077Z,5.44
2023-04-19T18:32:02.873Z,5.20
2023-04-19T18:34:35.179Z,5.37
2023-04-19T18:37:05.126Z,5.48
2023-04-19T18:39:32.898Z,5.17
2023-04-19T18:42:00.739Z,5.18
2023-04-19T18:44:52.147Z,4.99
2023-04-19T18:47:21.805Z,5.03
2023-04-19T18:52:27.305Z,5.36
2023-04-19T18:55:00.725Z,5.51
2023-04-19T18:57:34.732Z,5.65
2023-04-19T19:00:05.331Z,5.72
2023-04-19T19:02:34.227Z,5.80
2023-04-19T19:05:07.224Z,5.89
2023-04-19T19:07:37.127Z,5.96
2023-04-19T19:10:18.143Z,6.11
2023-04-19T19:12:46.686Z,6.18
2023-04-19T19:15:14.799Z,6.21
2023-04-19T19:17:43.257Z,6.01
2023-04-19T19:20:15.460Z,6.22
2023-04-19T19:22:43.219Z,6.10
2023-04-19T19:25:16.379Z,6.49
2023-04-19T19:27:58.393Z,6.38
2023-04-19T19:30:34.682Z,6.51
2023-04-19T19:33:04.323Z,6.24
2023-04-19T19:35:33.686Z,6.19
2023-04-19T19:38:05.960Z,6.21
2023-04-19T19:40:33.978Z,6.18
2023-04-19T19:43:01.994Z,6.11
2023-04-19T19:45:29.943Z,5.89
2023-04-19T19:47:59.199Z,5.60
2023-04-19T19:53:04.892Z,5.11
2023-04-19T19:55:32.795Z,5.00
2023-04-19T19:58:32.735Z,5.38
2023-04-19T20:00:55.422Z,5.68
2023-04-19T20:03:36.011Z,5.69
2023-04-19T20:06:35.656Z,5.77
2023-04-19T20:08:57.560Z,5.12
2023-04-19T20:11:25.632Z,5.50
2023-04-19T20:13:53.367Z,5.76
2023-04-19T20:16:23.638Z,6.05
2023-04-19T20:18:54.513Z,5.68
2023-04-19T20:21:28.205Z,5.42
2023-04-19T20:23:57.315Z,5.70
2023-04-19T20:26:32.390Z,5.71
2023-04-19T20:29:00.186Z,5.86
2023-04-19T20:31:28.071Z,5.37
2023-04-19T20:33:58.474Z,5.36
2023-04-19T20:36:28.042Z,5.35
2023-04-19T20:38:58.801Z,5.05
2023-04-19T20:41:27.073Z,4.94
2023-04-19T20:43:56.970Z,5.05
2023-04-19T20:46:24.808Z,5.24
2023-04-19T20:48:53.460Z,5.42
2023-04-19T20:51:23.361Z,5.17
2023-04-19T20:53:53.653Z,5.00
2023-04-19T20:56:25.363Z,4.81
2023-04-19T20:58:55.306Z,4.76
2023-04-19T21:01:24.392Z,4.99
2023-04-19T21:03:54.502Z,5.59
2023-04-19T21:06:27.865Z,5.64
2023-04-19T21:08:57.668Z,5.68
2023-04-19T21:11:26.795Z,5.61
2023-04-19T21:13:54.659Z,5.53
2023-04-19T21:16:22.584Z,5.54
2023-04-19T21:18:53.820Z,5.51
2023-04-19T21:21:24.235Z,5.53
2023-04-19T21:23:52.015Z,5.70
2023-04-19T21:26:19.985Z,5.81
2023-04-19T21:28:51.966Z,5.58
2023-04-19T21:31:19.711Z,5.58
2023-04-19T21:33:47.490Z,5.28
2023-04-19T21:36:15.198Z,5.60
2023-04-19T21:38:42.980Z,5.85
2023-04-19T21:41:10.925Z,5.65
2023-04-19T21:43:38.633Z,5.65
2023-04-19T21:46:07.741Z,5.61
2023-04-19T21:48:48.628Z,5.56
2023-04-19T21:51:17.176Z,5.45
2023-04-19T21:53:44.893Z,5.13
2023-04-19T21:56:12.689Z,5.21
2023-04-19T21:58:40.635Z,5.23
2023-04-19T22:01:10.728Z,5.33
2023-04-19T22:03:39.268Z,5.38
2023-04-19T22:06:08.528Z,5.28
2023-04-19T22:08:36.364Z,5.45
2023-04-19T22:11:04.183Z,5.78
2023-04-19T22:13:33.517Z,5.56
2023-04-19T22:16:02.426Z,5.30
2023-04-19T22:18:34.238Z,5.31
2023-04-19T22:21:02.001Z,5.33
2023-04-19T22:23:32.270Z,5.30
2023-04-19T22:26:00.396Z,5.10
2023-04-19T22:28:28.623Z,5.22
2023-04-19T22:30:56.349Z,5.52
2023-04-19T22:33:24.189Z,5.41
2023-04-19T22:35:53.329Z,5.59
2023-04-19T22:38:21.251Z,5.65
2023-04-19T22:40:48.989Z,5.69
2023-04-19T22:43:17.108Z,5.44
2023-04-19T22:45:47.802Z,5.46
2023-04-19T22:48:15.974Z,5.29
2023-04-19T22:50:43.750Z,5.35
2023-04-19T22:53:13.071Z,5.53
2023-04-19T22:55:40.981Z,5.43
2023-04-19T22:58:08.837Z,5.53
2023-04-19T23:00:36.658Z,5.60
2023-04-19T23:03:04.607Z,5.30
2023-04-19T23:05:33.602Z,5.41
2023-04-19T23:08:02.709Z,5.07
2023-04-19T23:10:31.952Z,4.87
2023-04-19T23:12:59.770Z,5.12
2023-04-19T23:15:29.453Z,4.90
2023-04-19T23:17:59.485Z,4.25
2023-04-19T23:20:27.296Z,4.33
2023-04-19T23:22:55.277Z,4.36
2023-04-19T23:25:23.125Z,4.82
2023-04-19T23:27:52.260Z,4.43
2023-04-19T23:30:20.173Z,4.12
2023-04-19T23:32:47.975Z,4.00
2023-04-19T23:35:15.727Z,4.00
2023-04-19T23:37:43.478Z,4.23
2023-04-19T23:40:11.777Z,4.62
2023-04-19T23:42:39.575Z,4.48
2023-04-19T23:45:11.815Z,3.95
2023-04-19T23:47:39.620Z,4.03
2023-04-19T23:50:08.541Z,3.91
2023-04-19T23:52:38.300Z,3.93
2023-04-19T23:55:06.876Z,3.98
2023-04-19T23:57:34.999Z,4.05
